Time;durP1;ratioP1;P1;durP2;ratioP2;P2;SDS_P1;SDS_P2;PMS_P1;PMS_P2;Temp;Humidity;BMP_temperature;BMP_pressure;BME280_temperature;BME280_humidity;BME280_pressure;Samples;Min_cycle;Max_cycle;Signal;HPM_P1;HPM_P2
2023/12/28 00:01:50;;;;;;;5.03;3.00;;;;;;;9.48;100.00;100763.91;5075496;28;20492;-64
2023/12/28 00:04:38;;;;;;;5.93;3.00;;;;;;;9.45;100.00;100765.22;5092045;28;20428;-65
2023/12/28 00:07:26;;;;;;;5.78;2.92;;;;;;;9.44;100.00;100768.22;5059286;28;20099;-64
2023/12/28 00:10:14;;;;;;;5.07;2.80;;;;;;;9.45;100.00;100761.69;5052953;28;20032;-65
2023/12/28 00:13:02;;;;;;;5.05;2.90;;;;;;;9.44;100.00;100762.78;5074812;28;20043;-65
2023/12/28 00:15:51;;;;;;;5.72;3.00;;;;;;;9.44;100.00;100757.34;5078535;28;20035;-66
2023/12/28 00:18:39;;;;;;;6.15;2.88;;;;;;;9.41;100.00;100768.75;5093679;28;20032;-65
2023/12/28 00:21:27;;;;;;;7.07;3.13;;;;;;;9.42;100.00;100760.31;5075256;28;20136;-66
2023/12/28 00:24:16;;;;;;;3.60;2.60;;;;;;;9.45;100.00;100781.53;5090965;28;20044;-65
2023/12/28 00:27:04;;;;;;;4.50;2.75;;;;;;;9.44;100.00;100769.03;5078732;28;20120;-65
2023/12/28 00:29:52;;;;;;;5.15;2.97;;;;;;;9.42;100.00;100778.53;5064759;28;20509;-65
2023/12/28 00:32:43;;;;;;;5.97;2.85;;;;;;;9.42;100.00;100775.81;5075854;28;20535;-66
2023/12/28 00:35:31;;;;;;;5.40;3.03;;;;;;;9.42;100.00;100784.78;5057560;28;20048;-65
2023/12/28 00:38:19;;;;;;;4.10;2.60;;;;;;;9.43;100.00;100782.88;5060992;28;20084;-65
2023/12/28 00:41:07;;;;;;;4.82;2.70;;;;;;;9.45;100.00;100775.28;5098400;28;20489;-66
2023/12/28 00:43:55;;;;;;;5.28;2.97;;;;;;;9.44;100.00;100773.66;5062262;28;20079;-65
2023/12/28 00:46:43;;;;;;;6.50;2.95;;;;;;;9.41;100.00;100774.19;5078113;28;20051;-64
2023/12/28 00:49:31;;;;;;;4.75;2.70;;;;;;;9.44;100.00;100781.81;5078131;28;20181;-65
2023/12/28 00:52:19;;;;;;;3.15;2.45;;;;;;;9.45;100.00;100792.41;5078808;28;20074;-66
2023/12/28 00:55:07;;;;;;;4.72;2.78;;;;;;;9.43;100.00;100793.75;5058181;28;20040;-65
2023/12/28 00:57:56;;;;;;;4.13;2.60;;;;;;;9.46;100.00;100801.41;5073320;28;20133;-65
2023/12/28 01:00:44;;;;;;;4.38;2.70;;;;;;;9.44;100.00;100807.09;5057480;28;20134;-65
2023/12/28 01:03:34;;;;;;;6.45;3.08;;;;;;;9.42;100.00;100803.00;5088032;28;20040;-64
2023/12/28 01:06:22;;;;;;;3.97;2.50;;;;;;;9.45;100.00;100807.91;5077622;28;20055;-64
2023/12/28 01:09:10;;;;;;;4.32;2.72;;;;;;;9.47;100.00;100811.19;5092036;28;20078;-66
2023/12/28 01:11:58;;;;;;;5.43;3.20;;;;;;;9.46;100.00;100804.94;5064716;28;20048;-65
2023/12/28 01:14:46;;;;;;;5.75;2.92;;;;;;;9.49;100.00;100809.03;5079302;28;20043;-66
2023/12/28 01:17:35;;;;;;;4.70;2.63;;;;;;;9.50;100.00;100810.66;5097933;28;20040;-66
2023/12/28 01:20:24;;;;;;;5.75;3.00;;;;;;;9.46;100.00;100815.00;5097739;28;20483;-66
2023/12/28 01:23:12;;;;;;;4.32;2.65;;;;;;;9.46;100.00;100823.16;5087701;28;20395;-65
2023/12/28 01:26:00;;;;;;;5.45;3.20;;;;;;;9.47;100.00;100832.94;5081754;28;20174;-64
2023/12/28 01:28:48;;;;;;;11.20;3.15;;;;;;;9.49;100.00;100828.06;5076536;28;20043;-63
2023/12/28 01:31:38;;;;;;;5.13;2.83;;;;;;;9.48;100.00;100837.34;5077162;28;20035;-64
2023/12/28 01:34:27;;;;;;;4.45;2.92;;;;;;;9.50;100.00;100832.41;5075701;28;20051;-64
2023/12/28 01:37:15;;;;;;;6.10;3.10;;;;;;;9.50;100.00;100837.88;5051593;28;20079;-65
2023/12/28 01:40:03;;;;;;;4.28;2.67;;;;;;;9.52;100.00;100831.09;5092894;28;20101;-65
2023/12/28 01:42:51;;;;;;;5.25;2.80;;;;;;;9.55;100.00;100829.75;5092708;28;20059;-64
2023/12/28 01:45:39;;;;;;;5.80;2.67;;;;;;;9.54;100.00;100830.84;5060925;28;20043;-64
2023/12/28 01:48:28;;;;;;;6.88;2.90;;;;;;;9.54;100.00;100839.81;5105224;28;20144;-64
2023/12/28 01:51:17;;;;;;;5.32;2.92;;;;;;;9.52;100.00;100835.72;5097466;28;20510;-64
2023/12/28 01:54:05;;;;;;;5.45;2.90;;;;;;;9.56;100.00;100842.28;5092316;28;20101;-65
2023/12/28 01:56:53;;;;;;;5.68;2.65;;;;;;;9.56;100.00;100831.41;5089553;28;20135;-61
2023/12/28 01:59:41;;;;;;;4.35;2.50;;;;;;;9.54;100.00;100839.00;5076843;28;20040;-63
2023/12/28 02:02:31;;;;;;;5.93;2.75;;;;;;;9.52;100.00;100841.97;5077724;28;20043;-65
2023/12/28 02:05:19;;;;;;;7.00;2.80;;;;;;;9.50;100.00;100843.31;5098741;28;20094;-63
2023/12/28 02:08:07;;;;;;;6.43;2.60;;;;;;;9.49;100.00;100847.13;5104420;28;20043;-64
2023/12/28 02:10:55;;;;;;;5.53;3.10;;;;;;;9.48;100.00;100838.16;5072537;28;20039;-65
2023/12/28 02:13:44;;;;;;;4.40;2.42;;;;;;;9.49;100.00;100830.78;5078319;28;20585;-65
2023/12/28 02:16:46;;;;;;;5.40;2.75;;;;;;;9.49;100.00;100837.03;5047155;28;20119;-65
2023/12/28 02:19:43;;;;;;;7.25;2.80;;;;;;;9.49;100.00;100837.03;5039308;28;20059;-66
2023/12/28 02:22:32;;;;;;;8.48;3.00;;;;;;;9.48;100.00;100840.03;5090994;28;20101;-65
2023/12/28 02:25:20;;;;;;;5.13;2.83;;;;;;;9.45;100.00;100841.34;5072529;28;20044;-66
2023/12/28 02:28:09;;;;;;;7.22;2.90;;;;;;;9.45;100.00;100835.09;5093123;28;20040;-64
2023/12/28 02:30:57;;;;;;;5.45;2.40;;;;;;;9.45;100.00;100826.94;5090543;28;20174;-65
2023/12/28 02:33:50;;;;;;;6.13;2.63;;;;;;;9.44;100.00;100839.72;5075738;28;20044;-65
2023/12/28 02:36:42;;;;;;;5.30;2.75;;;;;;;9.42;100.00;100841.88;5069101;28;20045;-66
2023/12/28 02:39:30;;;;;;;8.63;3.25;;;;;;;9.45;100.00;100835.09;5084347;28;20100;-65
2023/12/28 02:42:18;;;;;;;6.40;2.55;;;;;;;9.45;100.00;100818.78;5093251;28;20035;-65
2023/12/28 02:45:07;;;;;;;4.60;2.70;;;;;;;9.44;100.00;100826.13;5044077;28;20032;-64
2023/12/28 02:47:55;;;;;;;6.35;2.83;;;;;;;9.48;100.00;100818.28;5060536;28;20112;-64
2023/12/28 02:50:43;;;;;;;4.43;2.35;;;;;;;9.48;100.00;100821.81;5078520;28;20040;-65
2023/12/28 02:53:31;;;;;;;7.15;2.65;;;;;;;9.46;100.00;100834.03;5077098;28;20125;-64
2023/12/28 02:56:19;;;;;;;5.82;2.67;;;;;;;9.45;100.00;100826.94;5065077;28;20116;-65
2023/12/28 02:59:07;;;;;;;6.85;2.38;;;;;;;9.41;100.00;100834.81;5087542;28;20036;-64
2023/12/28 03:01:55;;;;;;;5.88;2.42;;;;;;;9.42;100.00;100835.63;5094426;28;20052;-65
2023/12/28 03:04:43;;;;;;;8.07;2.83;;;;;;;9.42;100.00;100835.63;5067217;28;20100;-65
2023/12/28 03:07:32;;;;;;;5.53;2.50;;;;;;;9.46;100.00;100829.41;5095161;28;20036;-65
2023/12/28 03:10:20;;;;;;;7.15;2.75;;;;;;;9.50;100.00;100826.97;5042153;28;20044;-64
2023/12/28 03:13:08;;;;;;;4.55;2.30;;;;;;;9.48;100.00;100815.56;5074415;28;20087;-64
2023/12/28 03:15:56;;;;;;;8.43;2.65;;;;;;;9.47;100.00;100814.72;5060156;28;20044;-63
2023/12/28 03:18:44;;;;;;;6.60;2.40;;;;;;;9.51;100.00;100813.13;5088702;28;20047;-65
2023/12/28 03:21:33;;;;;;;5.05;2.47;;;;;;;9.52;100.00;100806.59;5059153;28;20040;-65
2023/12/28 03:24:21;;;;;;;5.93;2.60;;;;;;;9.51;100.00;100815.03;5074365;28;20051;-65
2023/12/28 03:27:09;;;;;;;3.83;2.30;;;;;;;9.50;100.00;100810.66;5060445;28;20056;-65
2023/12/28 03:29:57;;;;;;;5.63;2.53;;;;;;;9.51;100.00;100825.91;5064546;28;20585;-65
2023/12/28 03:32:45;;;;;;;8.32;3.13;;;;;;;9.53;100.00;100816.41;5095524;28;20052;-65
2023/12/28 03:35:33;;;;;;;5.32;2.60;;;;;;;9.54;100.00;100822.66;5079944;28;20492;-65
2023/12/28 03:38:21;;;;;;;7.15;2.58;;;;;;;9.56;100.00;100820.50;5064716;28;20115;-66
2023/12/28 03:41:19;;;;;;;8.98;2.70;;;;;;;9.57;100.00;100816.69;5072567;28;20507;-65
2023/12/28 03:44:07;;;;;;;5.75;2.40;;;;;;;9.61;100.00;100828.72;5064351;28;20086;-65
2023/12/28 03:46:56;;;;;;;8.43;2.92;;;;;;;9.61;100.00;100817.81;5093918;28;20044;-64
2023/12/28 03:49:44;;;;;;;7.60;2.80;;;;;;;9.60;100.00;100821.63;5085378;28;20039;-66
2023/12/28 03:52:33;;;;;;;5.85;2.40;;;;;;;9.63;100.00;100817.56;5093914;28;20043;-65
2023/12/28 03:55:21;;;;;;;8.68;2.88;;;;;;;9.64;100.00;100809.13;5060114;28;20123;-66
2023/12/28 03:58:09;;;;;;;8.20;2.90;;;;;;;9.61;100.00;100817.81;5058945;28;20051;-66
2023/12/28 04:00:57;;;;;;;7.97;2.80;;;;;;;9.63;100.00;100820.28;5088653;28;21217;-65
2023/12/28 04:03:46;;;;;;;6.70;2.33;;;;;;;9.63;100.00;100815.66;5094309;28;20484;-65
2023/12/28 04:06:34;;;;;;;5.68;2.40;;;;;;;9.65;100.00;100818.94;5064728;28;20089;-65
2023/12/28 04:09:22;;;;;;;11.93;3.15;;;;;;;9.67;100.00;100824.94;5065364;28;20047;-65
2023/12/28 04:12:10;;;;;;;8.52;2.63;;;;;;;9.66;100.00;100823.28;5078422;28;20076;-65
2023/12/28 04:14:58;;;;;;;7.03;2.50;;;;;;;9.66;100.00;100817.84;5079999;28;20174;-64
2023/12/28 04:17:46;;;;;;;9.27;2.60;;;;;;;9.70;100.00;100832.59;5079499;28;20036;-64
2023/12/28 04:20:34;;;;;;;9.38;3.00;;;;;;;9.69;100.00;100836.41;5047738;28;20040;-64
2023/12/28 04:23:22;;;;;;;10.65;2.63;;;;;;;9.73;100.00;100817.63;5079704;28;20149;-65
2023/12/28 04:26:10;;;;;;;8.25;2.70;;;;;;;9.76;100.00;100820.63;5092692;28;20044;-64
2023/12/28 04:28:58;;;;;;;11.27;2.60;;;;;;;9.77;100.00;100822.28;5079945;28;20411;-64
2023/12/28 04:31:46;;;;;;;6.25;2.50;;;;;;;9.81;100.00;100820.69;5082579;28;20502;-65
2023/12/28 04:34:36;;;;;;;9.23;3.00;;;;;;;9.79;100.00;100814.69;5064768;28;20048;-64
2023/12/28 04:37:26;;;;;;;6.72;2.45;;;;;;;9.80;100.00;100821.75;5079196;28;20079;-64
2023/12/28 04:40:14;;;;;;;8.30;2.45;;;;;;;9.80;100.00;100810.06;5064911;28;20054;-65
2023/12/28 04:43:03;;;;;;;10.00;2.75;;;;;;;9.81;100.00;100820.69;5072590;28;20032;-65
2023/12/28 04:45:51;;;;;;;7.88;2.60;;;;;;;9.81;100.00;100817.97;5085750;28;20040;-64
2023/12/28 04:48:39;;;;;;;9.48;2.83;;;;;;;9.84;100.00;100822.06;5112997;28;20185;-66
2023/12/28 04:51:27;;;;;;;7.55;2.75;;;;;;;9.81;100.00;100828.00;5052846;28;20052;-64
2023/12/28 04:54:16;;;;;;;10.60;3.03;;;;;;;9.84;100.00;100826.66;5077349;28;20185;-65
2023/12/28 04:57:04;;;;;;;10.93;2.80;;;;;;;9.89;100.00;100819.38;5078854;28;20036;-64
2023/12/28 04:59:52;;;;;;;9.32;3.00;;;;;;;9.91;100.00;100828.09;5078018;28;20130;-66
2023/12/28 05:02:40;;;;;;;10.63;2.80;;;;;;;9.91;100.00;100833.53;5073471;28;20087;-65
2023/12/28 05:05:29;;;;;;;10.93;3.40;;;;;;;9.93;100.00;100844.16;5097711;28;20522;-64
2023/12/28 05:08:17;;;;;;;12.77;3.60;;;;;;;9.89;100.00;100843.88;5112299;28;20088;-64
2023/12/28 05:11:06;;;;;;;11.27;3.00;;;;;;;9.93;100.00;100841.41;5082917;28;20093;-64
2023/12/28 05:13:54;;;;;;;9.15;2.63;;;;;;;9.93;100.00;100850.44;5080017;28;20054;-64
2023/12/28 05:16:42;;;;;;;12.00;3.05;;;;;;;9.95;100.00;100850.16;5091582;28;20066;-66
2023/12/28 05:19:30;;;;;;;9.80;3.15;;;;;;;9.95;100.00;100861.03;5088257;28;20036;-65
2023/12/28 05:22:18;;;;;;;10.40;2.88;;;;;;;9.98;100.00;100866.78;5072811;28;20093;-65
2023/12/28 05:25:07;;;;;;;11.75;3.33;;;;;;;9.96;100.00;100862.69;5096936;28;20140;-65
2023/12/28 05:27:55;;;;;;;10.38;3.38;;;;;;;9.96;100.00;100846.34;5112360;28;20047;-65
2023/12/28 05:30:43;;;;;;;11.00;3.20;;;;;;;9.96;100.00;100857.25;5099991;28;20039;-65
2023/12/28 05:33:32;;;;;;;9.77;3.13;;;;;;;9.96;100.00;100854.53;5093778;28;20047;-63
2023/12/28 05:36:20;;;;;;;12.93;3.35;;;;;;;9.99;100.00;100848.56;5093740;28;20046;-64
2023/12/28 05:39:09;;;;;;;11.63;3.53;;;;;;;9.96;100.00;100866.22;5091907;28;20040;-64
2023/12/28 05:41:57;;;;;;;12.48;3.10;;;;;;;9.96;100.00;100866.22;5092075;28;20517;-64
2023/12/28 05:44:45;;;;;;;12.15;3.35;;;;;;;9.98;100.00;100865.94;5091763;28;20047;-66
2023/12/28 05:47:33;;;;;;;10.57;3.05;;;;;;;9.95;100.00;100866.47;5054988;28;20108;-65
2023/12/28 05:50:22;;;;;;;11.02;3.00;;;;;;;9.95;100.00;100861.03;5091386;28;20040;-64
2023/12/28 05:53:14;;;;;;;13.27;3.67;;;;;;;9.95;100.00;100866.47;5076085;28;20430;-64
2023/12/28 05:56:03;;;;;;;10.63;3.05;;;;;;;9.98;100.00;100863.22;5091777;28;20036;-65
2023/12/28 05:58:51;;;;;;;9.38;2.83;;;;;;;9.97;100.00;100886.09;5077552;28;20044;-65
2023/12/28 06:01:43;;;;;;;12.50;3.20;;;;;;;9.94;100.00;100875.75;5058326;28;20395;-64
2023/12/28 06:04:33;;;;;;;12.20;3.58;;;;;;;9.97;100.00;100872.47;5070987;28;20052;-65
2023/12/28 06:07:21;;;;;;;9.27;2.85;;;;;;;9.97;100.00;100881.47;5074397;28;20039;-65
2023/12/28 06:10:09;;;;;;;12.15;3.10;;;;;;;9.97;100.00;100867.84;5091802;28;20067;-65
2023/12/28 06:12:57;;;;;;;15.30;4.22;;;;;;;9.95;100.00;100866.47;5076680;28;20131;-66
2023/12/28 06:15:45;;;;;;;13.73;3.03;;;;;;;9.97;100.00;100864.31;5093811;28;20480;-63
2023/12/28 06:18:33;;;;;;;12.52;3.65;;;;;;;10.01;100.00;100868.97;5083231;28;20119;-65
2023/12/28 06:21:22;;;;;;;11.55;3.45;;;;;;;10.05;100.00;100868.44;5067623;28;20040;-64
2023/12/28 06:24:10;;;;;;;12.75;3.20;;;;;;;10.02;100.00;100869.78;5065396;28;20400;-63
2023/12/28 06:26:58;;;;;;;14.40;3.78;;;;;;;10.08;100.00;100876.91;5100223;28;20039;-62
2023/12/28 06:29:46;;;;;;;15.55;3.60;;;;;;;10.07;100.00;100877.16;5104637;28;20047;-62
2023/12/28 06:32:34;;;;;;;15.82;3.50;;;;;;;10.08;100.00;100886.97;5088476;28;20112;-65
2023/12/28 06:35:22;;;;;;;9.80;2.58;;;;;;;10.18;100.00;100882.41;5094064;28;20040;-65
2023/12/28 06:38:13;;;;;;;18.13;3.85;;;;;;;10.12;100.00;100880.72;5082777;28;20032;-64
2023/12/28 06:41:02;;;;;;;16.25;4.00;;;;;;;10.17;100.00;100878.06;5097298;28;20078;-65
2023/12/28 06:43:50;;;;;;;12.15;3.63;;;;;;;10.17;100.00;100886.22;5096036;28;20123;-64
2023/12/28 06:46:38;;;;;;;17.48;4.07;;;;;;;10.12;100.00;100891.63;5094273;28;20502;-65
2023/12/28 06:49:26;;;;;;;18.90;4.05;;;;;;;10.10;100.00;100888.38;5095090;28;20044;-65
2023/12/28 06:52:14;;;;;;;17.98;3.90;;;;;;;10.14;100.00;100883.19;5083016;28;20051;-65
2023/12/28 06:55:03;;;;;;;16.83;4.18;;;;;;;10.22;100.00;100886.25;5116474;28;20124;-64
2023/12/28 06:57:51;;;;;;;10.07;2.92;;;;;;;10.15;100.00;100888.41;5075911;28;20036;-65
2023/12/28 07:00:41;;;;;;;18.15;4.03;;;;;;;10.17;100.00;100890.84;5099551;28;20051;-65
2023/12/28 07:03:32;;;;;;;12.57;3.45;;;;;;;10.17;100.00;100908.00;4754332;28;10000473;-65
2023/12/28 07:06:20;;;;;;;14.07;3.50;;;;;;;10.19;100.00;100899.56;5091244;28;20127;-66
2023/12/28 07:09:08;;;;;;;19.80;4.43;;;;;;;10.11;100.00;100910.97;5091491;28;20518;-66
2023/12/28 07:11:56;;;;;;;17.08;4.13;;;;;;;10.17;100.00;100907.16;5087685;28;20446;-66
2023/12/28 07:14:44;;;;;;;15.90;4.07;;;;;;;10.10;100.00;100903.84;5076632;28;20040;-65
2023/12/28 07:17:32;;;;;;;15.27;3.75;;;;;;;10.13;100.00;100908.81;5087238;28;20040;-66
2023/12/28 07:20:20;;;;;;;11.68;3.40;;;;;;;10.20;100.00;100923.81;5094470;28;20594;-65
2023/12/28 07:23:09;;;;;;;13.38;4.18;;;;;;;10.19;100.00;100919.44;5092525;28;20032;-65
2023/12/28 07:25:58;;;;;;;15.70;4.22;;;;;;;10.16;100.00;100924.59;5083657;28;20047;-64
2023/12/28 07:28:48;;;;;;;14.98;4.20;;;;;;;10.19;100.00;100914.00;5053024;28;20432;-64
2023/12/28 07:31:36;;;;;;;14.88;4.10;;;;;;;10.16;100.00;100911.00;5071816;28;20052;-66
2023/12/28 07:34:25;;;;;;;24.23;4.50;;;;;;;10.26;100.00;100915.69;5090775;28;20185;-66
2023/12/28 07:37:13;;;;;;;16.75;4.13;;;;;;;10.32;100.00;100936.41;5076288;28;20135;-66
2023/12/28 07:40:03;;;;;;;16.85;4.03;;;;;;;10.23;100.00;100919.75;5089253;28;20082;-65
2023/12/28 07:42:51;;;;;;;16.25;4.15;;;;;;;10.20;100.00;100934.72;5070111;28;20052;-65
2023/12/28 07:45:39;;;;;;;16.85;4.30;;;;;;;10.15;100.00;100942.84;5070386;28;20044;-65
2023/12/28 07:48:27;;;;;;;15.90;4.18;;;;;;;10.12;100.00;100946.06;5070461;28;20458;-65
2023/12/28 07:51:15;;;;;;;16.95;4.68;;;;;;;10.11;100.00;100944.44;5076719;28;20047;-66
2023/12/28 07:54:03;;;;;;;16.35;4.55;;;;;;;10.18;100.00;100941.50;5075152;28;20050;-66
2023/12/28 07:56:51;;;;;;;20.00;4.60;;;;;;;10.19;100.00;100937.69;5090062;28;20040;-65
2023/12/28 07:59:39;;;;;;;19.90;4.28;;;;;;;10.24;100.00;100940.44;5067317;28;20048;-65
2023/12/28 08:02:27;;;;;;;16.75;4.45;;;;;;;10.18;100.00;100955.94;5104623;28;20123;-66
2023/12/28 08:05:15;;;;;;;14.85;3.95;;;;;;;10.17;100.00;100956.19;5091066;28;20078;-64
2023/12/28 08:08:03;;;;;;;16.92;4.50;;;;;;;10.15;100.00;100952.91;5075921;28;20083;-66
2023/12/28 08:10:51;;;;;;;18.85;4.28;;;;;;;10.14;100.00;100979.31;5059554;28;20116;-67
2023/12/28 08:13:39;;;;;;;14.75;4.40;;;;;;;10.21;100.00;100963.56;5076985;28;20036;-65
2023/12/28 08:16:27;;;;;;;16.80;4.18;;;;;;;10.22;100.00;100984.28;5091361;28;20056;-64
2023/12/28 08:19:15;;;;;;;17.83;4.60;;;;;;;10.27;100.00;100971.75;5075310;28;20052;-64
2023/12/28 08:22:04;;;;;;;16.35;4.32;;;;;;;10.21;100.00;100960.03;5101111;28;20036;-65
2023/12/28 08:24:52;;;;;;;14.68;4.68;;;;;;;10.21;100.00;100958.13;5091693;28;20044;-65
2023/12/28 08:27:40;;;;;;;12.88;3.70;;;;;;;10.26;100.00;100951.88;5076535;28;20403;-65
2023/12/28 08:30:28;;;;;;;23.08;4.47;;;;;;;10.22;100.00;100962.50;5078104;28;20051;-65
2023/12/28 08:33:17;;;;;;;18.30;4.65;;;;;;;10.34;100.00;100956.91;5103363;28;20047;-65
2023/12/28 08:36:06;;;;;;;19.90;5.85;;;;;;;10.29;100.00;100956.03;5078103;28;20430;-66
2023/12/28 08:38:54;;;;;;;19.38;4.70;;;;;;;10.52;100.00;100961.06;5050869;28;20127;-65
2023/12/28 08:41:42;;;;;;;18.67;4.25;;;;;;;10.36;100.00;100962.06;5090738;28;20044;-66
2023/12/28 08:44:30;;;;;;;19.10;5.65;;;;;;;10.44;100.00;100983.38;5092024;28;20044;-66
2023/12/28 08:47:18;;;;;;;21.50;5.63;;;;;;;10.40;100.00;100977.63;5104245;28;20051;-66
2023/12/28 08:50:06;;;;;;;26.75;6.85;;;;;;;10.45;100.00;100987.72;5087127;28;20048;-65
2023/12/28 08:52:54;;;;;;;23.65;6.93;;;;;;;10.72;100.00;100989.50;5074320;28;20044;-66
2023/12/28 08:55:42;;;;;;;21.08;4.63;;;;;;;10.45;100.00;100985.00;5091421;28;20111;-65
2023/12/28 08:58:30;;;;;;;19.35;4.55;;;;;;;10.29;100.00;101005.03;5064229;28;20166;-64
2023/12/28 09:01:22;;;;;;;27.65;7.47;;;;;;;10.21;100.00;101011.75;5078671;28;20056;-65
2023/12/28 09:04:11;;;;;;;15.10;3.97;;;;;;;10.23;100.00;101015.88;5063092;28;20052;-66
2023/12/28 09:06:59;;;;;;;18.75;4.07;;;;;;;10.28;100.00;101008.81;5058939;28;20037;-65
2023/12/28 09:09:47;;;;;;;19.17;5.43;;;;;;;10.32;100.00;101018.13;5072064;28;20052;-65
2023/12/28 09:12:35;;;;;;;37.92;10.13;;;;;;;10.34;100.00;101021.41;5075249;28;20044;-66
2023/12/28 09:15:23;;;;;;;21.90;6.13;;;;;;;10.32;100.00;101018.13;5068116;28;20676;-66
2023/12/28 09:18:11;;;;;;;33.28;9.55;;;;;;;10.38;100.00;101014.38;5089021;28;20559;-66
2023/12/28 09:20:59;;;;;;;41.00;9.95;;;;;;;10.46;100.00;101022.03;5076273;28;20039;-65
2023/12/28 09:23:47;;;;;;;20.45;5.55;;;;;;;10.50;100.00;101027.81;4724813;28;10000904;-66
2023/12/28 09:26:35;;;;;;;39.40;9.75;;;;;;;10.64;100.00;101021.63;5071876;28;20213;-66
2023/12/28 09:29:24;;;;;;;19.92;5.45;;;;;;;10.49;100.00;101034.34;5086475;28;20048;-66
2023/12/28 09:32:12;;;;;;;22.70;5.85;;;;;;;10.47;100.00;101014.72;5086510;28;20043;-66
2023/12/28 09:35:00;;;;;;;23.27;7.05;;;;;;;10.50;100.00;101025.06;5054657;28;20043;-66
2023/12/28 09:37:48;;;;;;;19.85;4.72;;;;;;;10.53;100.00;101044.44;5052872;28;20143;-66
2023/12/28 09:40:36;;;;;;;16.70;4.80;;;;;;;10.43;100.00;101036.19;5034912;28;20048;-66
2023/12/28 09:43:40;;;;;;;30.33;8.88;;;;;;;10.48;100.00;101049.03;5088941;28;20407;-65
2023/12/28 09:46:28;;;;;;;27.20;5.38;;;;;;;10.50;100.00;101047.69;5087599;28;20210;-66
2023/12/28 09:49:16;;;;;;;24.30;7.13;;;;;;;10.54;100.00;101043.34;5060390;28;20571;-67
2023/12/28 09:52:05;;;;;;;20.60;5.90;;;;;;;10.47;100.00;101053.66;5062233;28;20071;-66
2023/12/28 09:54:53;;;;;;;18.55;5.28;;;;;;;10.41;100.00;101055.53;5086386;28;20048;-66
2023/12/28 09:57:41;;;;;;;18.77;4.88;;;;;;;10.33;100.00;101060.63;5067967;28;20041;-66
2023/12/28 10:00:30;;;;;;;16.05;4.72;;;;;;;10.29;100.00;101054.06;5051571;28;20105;-66
2023/12/28 10:03:19;;;;;;;18.73;4.47;;;;;;;10.30;100.00;101055.72;5071374;28;20466;-66
2023/12/28 10:06:07;;;;;;;17.20;4.43;;;;;;;10.30;100.00;101066.63;5077627;28;20052;-66
2023/12/28 10:08:55;;;;;;;19.08;4.65;;;;;;;10.29;100.00;101063.03;5087687;28;20531;-66
2023/12/28 10:11:43;;;;;;;22.98;5.10;;;;;;;10.33;100.00;101072.34;5084318;28;20048;-66
2023/12/28 10:14:31;;;;;;;19.30;4.90;;;;;;;10.37;100.00;101061.78;5077694;28;20044;-66
2023/12/28 10:17:19;;;;;;;19.13;6.00;;;;;;;10.46;100.00;101081.97;5087205;28;20098;-66
2023/12/28 10:20:09;;;;;;;22.08;6.30;;;;;;;10.45;100.00;101072.16;5067288;28;20531;-66
2023/12/28 10:22:59;;;;;;;22.75;6.43;;;;;;;10.50;100.00;101066.75;5054379;28;20044;-66
2023/12/28 10:25:49;;;;;;;22.90;6.18;;;;;;;10.57;100.00;101058.38;5060791;28;20385;-64
2023/12/28 10:28:39;;;;;;;21.70;5.20;;;;;;;10.71;100.00;101064.19;5082602;28;20052;-64
2023/12/28 10:31:27;;;;;;;22.48;6.85;;;;;;;10.69;100.00;101047.28;5061473;28;20497;-65
2023/12/28 10:34:16;;;;;;;20.67;5.28;;;;;;;10.67;100.00;101047.53;5076933;28;20516;-64
2023/12/28 10:37:05;;;;;;;21.77;6.15;;;;;;;10.64;100.00;101037.16;5066404;28;20047;-64
2023/12/28 10:39:55;;;;;;;22.30;4.63;;;;;;;10.51;100.00;101041.16;5083664;28;20054;-64
2023/12/28 10:43:01;;;;;;;20.15;4.78;;;;;;;10.44;100.00;101048.75;5076296;28;20036;-65
2023/12/28 10:45:54;;;;;;;18.85;4.53;;;;;;;10.42;100.00;101043.56;5090920;28;20036;-63
2023/12/28 10:48:43;;;;;;;23.83;5.22;;;;;;;10.42;100.00;101034.56;5087626;28;20044;-63
2023/12/28 10:51:36;;;;;;;21.38;4.90;;;;;;;10.44;100.00;101046.84;5075353;28;20440;-62
2023/12/28 10:54:27;;;;;;;18.38;4.32;;;;;;;10.44;100.00;101043.31;5082156;28;20070;-64
2023/12/28 10:57:27;;;;;;;21.15;5.10;;;;;;;10.44;100.00;101043.31;5081773;28;20036;-65
2023/12/28 11:00:22;;;;;;;21.73;4.50;;;;;;;10.53;100.00;101047.16;5091644;28;20054;-65
2023/12/28 11:03:12;;;;;;;22.70;5.82;;;;;;;10.75;100.00;101040.75;5075328;28;20058;-65
2023/12/28 11:06:01;;;;;;;18.90;5.85;;;;;;;10.76;100.00;101034.22;5084986;28;20045;-64
2023/12/28 11:08:51;;;;;;;19.65;4.28;;;;;;;10.66;100.00;101029.53;5087372;28;20055;-64
2023/12/28 11:11:40;;;;;;;19.63;4.82;;;;;;;10.63;100.00;101030.88;5070890;28;20048;-65
2023/12/28 11:14:28;;;;;;;17.60;5.22;;;;;;;10.69;100.00;101012.66;5074305;28;20062;-64
2023/12/28 11:17:17;;;;;;;20.55;5.70;;;;;;;10.73;100.00;101021.13;5058207;28;20048;-65
2023/12/28 11:20:06;;;;;;;20.13;5.05;;;;;;;10.71;100.00;101024.13;5076849;28;20036;-64
2023/12/28 11:22:54;;;;;;;19.17;5.90;;;;;;;10.73;100.00;101026.59;4712487;28;9999920;-65
2023/12/28 11:25:42;;;;;;;23.17;5.32;;;;;;;10.81;100.00;101029.63;5063927;28;20305;-65
2023/12/28 11:28:30;;;;;;;23.02;5.82;;;;;;;10.88;100.00;101008.41;5073792;28;20058;-65
2023/12/28 11:31:19;;;;;;;16.45;4.80;;;;;;;10.86;100.00;101012.47;5071138;28;20531;-65
2023/12/28 11:34:11;;;;;;;18.08;4.45;;;;;;;10.85;100.00;101010.84;5077013;28;20056;-65
2023/12/28 11:37:09;;;;;;;19.42;5.00;;;;;;;10.80;100.00;101017.09;5075690;28;20070;-66
2023/12/28 11:39:59;;;;;;;22.00;4.80;;;;;;;10.78;100.00;101002.09;5056369;28;20394;-64
2023/12/28 11:42:52;;;;;;;17.90;4.55;;;;;;;10.81;100.00;100993.38;5088911;28;20052;-64
2023/12/28 11:46:05;;;;;;;16.60;4.53;;;;;;;10.83;100.00;100996.66;5088005;28;20396;-65
2023/12/28 11:49:04;;;;;;;20.75;4.82;;;;;;;10.88;100.00;101004.84;5075785;28;20052;-65
2023/12/28 11:51:59;;;;;;;16.20;4.70;;;;;;;10.87;100.00;101000.47;5062485;28;20147;-66
2023/12/28 11:54:50;;;;;;;21.88;5.55;;;;;;;11.01;100.00;101003.53;5091026;28;20045;-65
2023/12/28 11:57:38;;;;;;;18.38;5.30;;;;;;;11.08;100.00;100979.56;5079959;28;20048;-65
2023/12/28 12:00:27;;;;;;;17.48;4.97;;;;;;;10.95;100.00;100991.81;5059542;28;20386;-65
2023/12/28 12:03:15;;;;;;;18.25;5.30;;;;;;;10.97;100.00;100986.09;5079696;28;20133;-64
2023/12/28 12:06:04;;;;;;;19.45;5.22;;;;;;;10.90;100.00;100986.34;5061469;28;20055;-64
2023/12/28 12:08:52;;;;;;;21.10;5.00;;;;;;;10.71;100.00;100982.44;5093276;28;20134;-66
2023/12/28 12:11:40;;;;;;;21.75;5.35;;;;;;;10.63;100.00;100986.44;5093965;28;20047;-64
2023/12/28 12:14:29;;;;;;;26.95;5.28;;;;;;;10.59;100.00;100986.19;5081291;28;20185;-65
2023/12/28 12:17:19;;;;;;;21.17;4.90;;;;;;;10.60;100.00;100982.34;5046000;28;20048;-65
2023/12/28 12:20:08;;;;;;;16.10;4.88;;;;;;;10.80;100.00;100980.81;5092226;28;20052;-65
2023/12/28 12:23:00;;;;;;;18.48;4.82;;;;;;;10.79;100.00;100974.53;5092594;28;20044;-65
2023/12/28 12:25:48;;;;;;;14.15;4.72;;;;;;;10.83;100.00;100977.56;5093590;28;20178;-65
2023/12/28 12:28:36;;;;;;;17.80;4.38;;;;;;;10.83;100.00;100981.13;5073154;28;20508;-65
2023/12/28 12:31:26;;;;;;;21.08;5.07;;;;;;;10.80;100.00;100969.91;5071178;28;20416;-64
2023/12/28 12:34:17;;;;;;;21.13;5.05;;;;;;;10.74;100.00;100971.81;5092343;28;20055;-64
2023/12/28 12:37:06;;;;;;;28.50;5.65;;;;;;;10.75;100.00;100978.91;5067492;28;20135;-66
2023/12/28 12:39:54;;;;;;;20.85;4.80;;;;;;;10.77;100.00;100970.44;5068567;28;20174;-66
2023/12/28 12:42:42;;;;;;;19.83;4.25;;;;;;;10.75;100.00;100969.88;5090452;28;20401;-66
2023/12/28 12:45:30;;;;;;;20.52;4.55;;;;;;;10.74;100.00;100952.72;5075875;28;20055;-66
2023/12/28 12:48:19;;;;;;;19.92;5.28;;;;;;;10.70;100.00;100959.78;5078127;28;20492;-65
2023/12/28 12:51:08;;;;;;;19.20;5.10;;;;;;;10.77;100.00;100956.81;5091324;28;20058;-65
2023/12/28 12:53:59;;;;;;;14.40;4.20;;;;;;;10.82;100.00;100962.28;5082390;28;20059;-65
2023/12/28 12:56:49;;;;;;;15.73;4.30;;;;;;;10.89;100.00;100957.41;5091680;28;20446;-65